createdAt,value
2022-08-04T00:00:16.253Z,67.64
2022-08-04T00:03:17.299Z,68.70
2022-08-04T00:06:19.593Z,69.28
2022-08-04T00:09:00.250Z,69.97
2022-08-04T00:11:32.637Z,68.60
2022-08-04T00:14:11.815Z,68.78
2022-08-04T00:16:43.475Z,70.42
2022-08-04T00:19:30.822Z,70.27
2022-08-04T00:22:05.826Z,71.00
2022-08-04T00:24:37.897Z,72.33
2022-08-04T00:27:09.732Z,72.05
2022-08-04T00:29:40.500Z,72.02
2022-08-04T00:32:09.696Z,72.00
2022-08-04T00:34:38.653Z,71.40
2022-08-04T00:37:08.035Z,71.37
2022-08-04T00:39:37.614Z,71.30
2022-08-04T00:42:34.602Z,71.30
2022-08-04T00:46:25.024Z,71.46
2022-08-04T00:49:17.595Z,71.73
2022-08-04T00:52:30.671Z,72.60
2022-08-04T00:55:41.945Z,70.97
2022-08-04T00:59:05.848Z,71.22
2022-08-04T01:01:53.018Z,72.33
2022-08-04T01:04:47.772Z,72.11
2022-08-04T01:07:55.761Z,73.11
2022-08-04T01:11:14.575Z,73.39
2022-08-04T01:14:56.335Z,71.81
2022-08-04T01:17:43.727Z,71.10
2022-08-04T01:20:22.247Z,71.82
2022-08-04T01:23:12.767Z,71.96
2022-08-04T01:26:42.292Z,72.39
2022-08-04T01:29:24.173Z,72.63
2022-08-04T01:32:05.713Z,72.06
2022-08-04T01:35:15.463Z,69.85
2022-08-04T01:38:28.931Z,71.33
2022-08-04T01:41:05.760Z,72.03
2022-08-04T01:43:41.981Z,72.47
2022-08-04T01:46:18.884Z,72.45
2022-08-04T01:48:50.288Z,72.82
2022-08-04T01:51:21.373Z,72.72
2022-08-04T01:53:50.043Z,73.65
2022-08-04T01:56:20.336Z,73.03
2022-08-04T01:58:49.364Z,72.78
2022-08-04T02:01:18.058Z,72.97
2022-08-04T02:04:21.324Z,72.95
2022-08-04T02:06:56.417Z,72.09
2022-08-04T02:09:59.309Z,72.96
2022-08-04T02:13:14.971Z,73.17
2022-08-04T02:16:21.951Z,72.63
2022-08-04T02:19:33.708Z,74.08
2022-08-04T02:22:19.439Z,73.89
2022-08-04T02:24:54.308Z,75.00
2022-08-04T02:28:00.335Z,74.91
2022-08-04T02:30:22.989Z,74.25
2022-08-04T02:32:56.474Z,73.91
2022-08-04T02:35:28.621Z,75.06
2022-08-04T02:38:32.824Z,76.16
2022-08-04T02:41:03.057Z,76.00
2022-08-04T02:43:51.386Z,76.74
2022-08-04T02:46:22.773Z,75.51
2022-08-04T02:48:54.702Z,76.84
2022-08-04T02:51:38.032Z,74.84
2022-08-04T02:54:09.258Z,75.65
2022-08-04T02:56:40.709Z,75.46
2022-08-04T02:59:13.456Z,74.45
2022-08-04T03:01:57.329Z,75.72
2022-08-04T03:04:55.226Z,77.10
2022-08-04T03:08:06.126Z,74.85
2022-08-04T03:11:07.954Z,76.63
2022-08-04T03:14:09.605Z,75.92
2022-08-04T03:17:21.586Z,77.44
2022-08-04T03:20:38.845Z,77.98
2022-08-04T03:24:19.707Z,76.38
2022-08-04T03:27:13.695Z,77.40
2022-08-04T03:30:06.719Z,77.62
2022-08-04T03:33:37.913Z,76.66
2022-08-04T03:36:41.415Z,76.30
2022-08-04T03:40:17.764Z,78.44
2022-08-04T03:43:57.447Z,77.50
2022-08-04T03:46:55.997Z,77.76
2022-08-04T03:50:20.766Z,76.28
2022-08-04T03:53:28.831Z,76.07
2022-08-04T03:56:27.956Z,77.58
2022-08-04T04:00:09.767Z,75.33
2022-08-04T04:03:31.534Z,74.24
2022-08-04T04:06:58.888Z,74.43
2022-08-04T04:10:06.414Z,75.28
2022-08-04T04:13:00.299Z,76.60
2022-08-04T04:16:08.174Z,76.42
2022-08-04T04:19:25.341Z,76.55
2022-08-04T04:22:18.566Z,76.03
2022-08-04T04:25:27.045Z,75.68
2022-08-04T04:28:46.760Z,73.64
2022-08-04T04:32:24.611Z,72.15
2022-08-04T04:35:29.660Z,72.36
2022-08-04T04:38:29.538Z,73.59
2022-08-04T04:41:18.238Z,72.90
2022-08-04T04:44:12.578Z,73.45
2022-08-04T04:47:00.701Z,73.54
2022-08-04T04:49:52.469Z,71.77
2022-08-04T04:52:54.061Z,71.21
2022-08-04T04:56:06.550Z,69.97
2022-08-04T04:58:37.623Z,68.96
2022-08-04T05:02:03.819Z,67.98
2022-08-04T05:04:56.627Z,68.66
2022-08-04T05:08:45.163Z,65.55
2022-08-04T05:11:41.800Z,64.06
2022-08-04T05:14:37.546Z,64.05
2022-08-04T05:17:28.323Z,63.02
2022-08-04T05:20:35.622Z,64.03
2022-08-04T05:23:20.102Z,61.64
2022-08-04T05:26:02.132Z,60.63
2022-08-04T05:28:36.960Z,59.83
2022-08-04T05:31:24.036Z,58.76
2022-08-04T05:34:06.254Z,57.21
2022-08-04T05:36:52.420Z,55.66
2022-08-04T05:39:33.839Z,55.33
2022-08-04T05:42:05.067Z,56.16
2022-08-04T05:44:36.876Z,56.15
2022-08-04T05:47:08.123Z,55.06
2022-08-04T05:49:41.622Z,54.70
2022-08-04T05:52:11.994Z,55.87
2022-08-04T05:54:42.556Z,56.76
2022-08-04T05:57:11.828Z,54.46
2022-08-04T05:59:46.685Z,53.64
2022-08-04T06:02:18.022Z,52.17
2022-08-04T06:04:51.898Z,51.06
2022-08-04T06:07:21.094Z,51.89
2022-08-04T06:09:49.800Z,50.35
2022-08-04T06:12:53.715Z,48.65
2022-08-04T06:15:25.415Z,48.11
2022-08-04T06:19:57.766Z,47.83
2022-08-04T06:21:01.069Z,47.51
2022-08-04T06:23:37.855Z,47.37
2022-08-04T06:26:27.146Z,47.13
2022-08-04T06:28:56.869Z,46.33
2022-08-04T06:32:27.285Z,46.02
2022-08-04T06:34:33.507Z,46.09
2022-08-04T06:37:04.451Z,44.76
2022-08-04T06:39:34.352Z,44.95
2022-08-04T06:42:22.178Z,44.03
2022-08-04T06:44:57.249Z,42.95
2022-08-04T06:47:26.615Z,42.38
2022-08-04T06:51:25.419Z,42.83
2022-08-04T06:52:46.947Z,42.16
2022-08-04T06:55:15.469Z,41.33
2022-08-04T06:57:45.487Z,40.20
2022-08-04T07:00:15.262Z,40.35
2022-08-04T07:02:51.853Z,38.84
2022-08-04T07:05:21.669Z,39.13
2022-08-04T07:07:56.413Z,38.02
2022-08-04T07:10:29.647Z,37.00
2022-08-04T07:13:00.422Z,36.17
2022-08-04T07:15:29.924Z,36.12
2022-08-04T07:18:00.513Z,35.06
2022-08-04T07:20:35.533Z,35.59
2022-08-04T07:23:10.333Z,34.94
2022-08-04T07:26:00.032Z,34.91
2022-08-04T07:28:30.441Z,33.35
2022-08-04T07:30:59.718Z,32.46
2022-08-04T07:33:29.797Z,32.29
2022-08-04T07:36:05.928Z,33.15
2022-08-04T07:38:48.293Z,32.85
2022-08-04T07:41:42.592Z,32.00
2022-08-04T07:44:16.093Z,32.11
2022-08-04T07:46:47.091Z,31.32
2022-08-04T07:49:55.064Z,31.73
2022-08-04T07:52:07.383Z,31.09
2022-08-04T07:54:36.655Z,30.50
2022-08-04T07:57:05.295Z,30.44
2022-08-04T07:59:36.711Z,29.64
2022-08-04T08:02:05.385Z,29.42
2022-08-04T08:04:35.475Z,29.80
2022-08-04T08:07:04.033Z,30.58
2022-08-04T08:09:34.528Z,30.01
2022-08-04T08:12:36.161Z,30.96
2022-08-04T08:14:52.493Z,29.58
2022-08-04T08:17:21.094Z,29.04
2022-08-04T08:19:49.747Z,28.93
2022-08-04T08:22:18.498Z,28.25
2022-08-04T08:24:47.054Z,27.82
2022-08-04T08:27:15.686Z,27.47
2022-08-04T08:29:45.556Z,28.30
2022-08-04T08:32:15.496Z,27.76
2022-08-04T08:34:46.444Z,27.63
2022-08-04T08:37:35.215Z,27.96
2022-08-04T08:40:37.901Z,27.81
2022-08-04T08:44:19.301Z,26.98
2022-08-04T08:48:05.078Z,27.69
2022-08-04T08:51:18.911Z,27.17
2022-08-04T08:54:40.788Z,27.33
2022-08-04T08:58:00.018Z,26.55
2022-08-04T09:01:07.750Z,26.62
2022-08-04T09:04:28.820Z,25.88
2022-08-04T09:07:22.382Z,27.49
2022-08-04T09:10:27.140Z,27.07
2022-08-04T09:13:13.852Z,26.90
2022-08-04T09:16:20.690Z,28.09
2022-08-04T09:19:04.293Z,27.17
2022-08-04T09:22:22.864Z,27.38
2022-08-04T09:25:07.818Z,27.79
2022-08-04T09:27:56.221Z,26.83
2022-08-04T09:30:35.026Z,26.26
2022-08-04T09:33:44.629Z,26.91
2022-08-04T09:36:58.870Z,26.94
2022-08-04T09:40:31.296Z,26.32
2022-08-04T09:44:50.368Z,26.69
2022-08-04T09:47:39.555Z,27.45
2022-08-04T09:50:39.422Z,27.90
2022-08-04T09:53:54.671Z,27.54
2022-08-04T09:57:05.207Z,26.96
2022-08-04T10:00:08.401Z,26.97
2022-08-04T10:02:56.272Z,26.41
2022-08-04T10:06:13.027Z,26.75
2022-08-04T10:09:29.921Z,27.19
2022-08-04T10:11:58.246Z,27.36
2022-08-04T10:14:41.711Z,27.87
2022-08-04T10:17:38.946Z,26.49
2022-08-04T10:21:01.181Z,27.17
2022-08-04T10:23:55.922Z,26.76
2022-08-04T10:26:46.691Z,27.05
2022-08-04T10:29:46.978Z,26.62
2022-08-04T10:32:34.478Z,26.79
2022-08-04T10:35:23.897Z,26.43
2022-08-04T10:38:23.995Z,26.52
2022-08-04T10:41:28.057Z,25.46
2022-08-04T10:44:23.854Z,26.30
2022-08-04T10:47:01.605Z,25.63
2022-08-04T10:49:41.166Z,26.59
2022-08-04T10:52:28.638Z,26.18
2022-08-04T10:55:03.885Z,26.88
2022-08-04T10:57:53.250Z,26.97
2022-08-04T11:00:29.700Z,27.12
2022-08-04T11:03:25.438Z,26.27
2022-08-04T11:06:00.743Z,26.24
2022-08-04T11:08:54.961Z,26.72
2022-08-04T11:12:00.526Z,28.54
2022-08-04T11:15:00.239Z,27.93
2022-08-04T11:17:58.613Z,28.50
2022-08-04T11:20:46.593Z,28.16
2022-08-04T11:23:19.396Z,28.01
2022-08-04T11:26:45.335Z,27.95
2022-08-04T11:29:32.747Z,28.34
2022-08-04T11:32:11.101Z,27.72
2022-08-04T11:34:52.919Z,27.47
2022-08-04T11:37:50.745Z,27.96
2022-08-04T11:40:33.867Z,27.68
2022-08-04T11:44:00.825Z,26.85
2022-08-04T11:46:24.604Z,27.52
2022-08-04T11:49:16.125Z,27.81
2022-08-04T11:51:47.371Z,27.44
2022-08-04T11:54:17.983Z,26.81
2022-08-04T11:56:46.618Z,27.16
2022-08-04T11:59:15.762Z,26.63
2022-08-04T12:02:49.647Z,26.91
2022-08-04T12:05:37.041Z,26.89
2022-08-04T12:08:22.522Z,26.58
2022-08-04T12:11:46.187Z,27.36
2022-08-04T12:15:00.038Z,27.07
2022-08-04T12:18:01.387Z,27.17
2022-08-04T12:20:48.986Z,26.93
2022-08-04T12:23:36.496Z,26.19
2022-08-04T12:26:23.037Z,27.12
2022-08-04T12:29:16.401Z,25.62
2022-08-04T12:32:12.763Z,25.53
2022-08-04T12:35:18.926Z,26.02
2022-08-04T12:38:16.784Z,25.86
2022-08-04T12:40:57.854Z,25.58
2022-08-04T12:43:45.682Z,25.09
2022-08-04T12:46:27.760Z,25.57
2022-08-04T12:49:04.432Z,25.11
2022-08-04T12:52:08.438Z,25.85
2022-08-04T12:54:39.271Z,25.62
2022-08-04T12:57:09.101Z,25.44
2022-08-04T12:59:45.682Z,25.04
2022-08-04T13:02:32.162Z,25.18
2022-08-04T13:05:08.005Z,25.71
2022-08-04T13:07:53.914Z,25.37
2022-08-04T13:10:30.368Z,26.13
2022-08-04T13:13:01.797Z,25.54
2022-08-04T13:15:31.264Z,25.28
2022-08-04T13:18:14.781Z,25.37
2022-08-04T13:20:45.000Z,25.80
2022-08-04T13:23:21.924Z,25.24
2022-08-04T13:26:44.347Z,25.63
2022-08-04T13:28:50.358Z,25.58
2022-08-04T13:31:24.000Z,25.79
2022-08-04T13:34:07.907Z,25.20
2022-08-04T13:36:50.401Z,25.61
2022-08-04T13:39:21.976Z,25.62
2022-08-04T13:41:58.916Z,26.14
2022-08-04T13:44:36.600Z,25.36
2022-08-04T13:47:20.771Z,25.59
2022-08-04T13:50:27.619Z,25.59
2022-08-04T13:53:02.767Z,24.78
2022-08-04T13:55:37.142Z,24.61
2022-08-04T13:58:22.404Z,24.81
2022-08-04T14:01:01.381Z,23.97
2022-08-04T14:04:02.044Z,24.84
2022-08-04T14:06:35.864Z,24.40
2022-08-04T14:09:16.471Z,26.16
2022-08-04T14:12:09.779Z,26.55
2022-08-04T14:14:53.573Z,26.63
2022-08-04T14:17:29.909Z,26.70
2022-08-04T14:20:03.496Z,25.73
2022-08-04T14:22:36.156Z,26.10
2022-08-04T14:25:16.117Z,25.62
2022-08-04T14:27:57.412Z,25.67
2022-08-04T14:30:37.825Z,25.35
2022-08-04T14:34:02.713Z,25.23
2022-08-04T14:36:03.878Z,25.06
2022-08-04T14:38:58.548Z,25.43
2022-08-04T14:41:44.456Z,25.07
2022-08-04T14:44:13.074Z,24.61
2022-08-04T14:46:59.264Z,25.13
2022-08-04T14:49:27.778Z,25.22
2022-08-04T14:52:03.168Z,24.68
2022-08-04T14:54:35.451Z,24.29
2022-08-04T14:57:09.025Z,25.24
2022-08-04T15:00:01.566Z,25.28
2022-08-04T15:02:32.660Z,25.46
2022-08-04T15:06:01.636Z,25.51
2022-08-04T15:07:52.885Z,25.49
2022-08-04T15:10:22.985Z,25.66
2022-08-04T15:12:51.726Z,25.07
2022-08-04T15:15:36.485Z,25.40
2022-08-04T15:18:10.535Z,25.88
2022-08-04T15:20:42.467Z,25.56
2022-08-04T15:23:11.168Z,25.41
2022-08-04T15:25:55.088Z,25.27
2022-08-04T15:28:28.974Z,25.89
2022-08-04T15:30:58.324Z,24.96
2022-08-04T15:33:34.064Z,25.21
2022-08-04T15:36:36.551Z,25.30
2022-08-04T15:39:38.455Z,25.35
2022-08-04T15:42:34.294Z,25.11
2022-08-04T15:46:04.251Z,25.27
2022-08-04T15:48:17.420Z,25.24
2022-08-04T15:51:02.924Z,24.90
2022-08-04T15:54:03.182Z,25.31
2022-08-04T15:56:31.201Z,25.28
2022-08-04T15:58:59.960Z,25.96
2022-08-04T16:01:28.502Z,25.64
2022-08-04T16:03:59.830Z,25.46
2022-08-04T16:06:30.616Z,25.00
2022-08-04T16:09:05.080Z,25.53
2022-08-04T16:11:35.100Z,25.19
2022-08-04T16:14:03.729Z,25.44
2022-08-04T16:16:50.207Z,25.35
2022-08-04T16:19:55.806Z,24.97
2022-08-04T16:22:42.537Z,25.32
2022-08-04T16:25:11.213Z,25.55
2022-08-04T16:27:43.844Z,26.80
2022-08-04T16:30:15.166Z,26.11
2022-08-04T16:32:48.807Z,26.44
2022-08-04T16:35:28.708Z,26.69
2022-08-04T16:38:16.235Z,26.75
2022-08-04T16:40:45.362Z,26.38
2022-08-04T16:43:22.442Z,27.23
2022-08-04T16:46:01.105Z,27.21
2022-08-04T16:48:35.983Z,27.05
2022-08-04T16:51:15.016Z,28.38
2022-08-04T16:53:52.266Z,28.38
2022-08-04T16:56:35.857Z,27.85
2022-08-04T16:59:13.535Z,29.30
2022-08-04T17:01:56.212Z,29.11
2022-08-04T17:04:35.806Z,28.96
2022-08-04T17:07:06.988Z,28.91
2022-08-04T17:09:35.617Z,29.59
2022-08-04T17:12:04.513Z,29.67
2022-08-04T17:14:32.983Z,29.14
2022-08-04T17:17:04.439Z,30.40
2022-08-04T17:19:38.314Z,29.74
2022-08-04T17:22:10.201Z,29.28
2022-08-04T17:24:41.260Z,29.76
2022-08-04T17:28:06.185Z,31.07
2022-08-04T17:30:01.124Z,30.16
2022-08-04T17:32:29.815Z,31.24
2022-08-04T17:35:02.131Z,30.95
2022-08-04T17:37:40.136Z,31.21
2022-08-04T17:40:18.625Z,31.72
2022-08-04T17:44:01.132Z,33.55
2022-08-04T17:46:28.921Z,33.14
2022-08-04T17:49:12.303Z,34.43
2022-08-04T17:52:06.758Z,35.02
2022-08-04T17:54:40.986Z,35.29
2022-08-04T17:57:22.132Z,36.02
2022-08-04T17:59:59.319Z,36.15
2022-08-04T18:02:34.865Z,37.74
2022-08-04T18:05:11.851Z,37.65
2022-08-04T18:08:35.551Z,37.60
2022-08-04T18:10:52.328Z,39.54
2022-08-04T18:13:29.042Z,39.27
2022-08-04T18:16:05.876Z,39.58
2022-08-04T18:18:41.295Z,40.74
2022-08-04T18:21:17.697Z,39.87
2022-08-04T18:23:50.911Z,40.89
2022-08-04T18:26:23.752Z,40.94
2022-08-04T18:28:52.771Z,40.24
2022-08-04T18:31:21.423Z,41.21
2022-08-04T18:33:57.223Z,41.06
2022-08-04T18:36:37.998Z,40.92
2022-08-04T18:39:15.862Z,41.92
2022-08-04T18:42:01.736Z,42.23
2022-08-04T18:44:52.307Z,42.57
2022-08-04T18:51:01.774Z,44.55
2022-08-04T18:53:02.347Z,45.25
2022-08-04T18:55:55.778Z,44.59
2022-08-04T18:58:21.608Z,45.24
2022-08-04T19:01:00.251Z,45.56
2022-08-04T19:03:32.999Z,46.32
2022-08-04T19:06:03.496Z,46.49
2022-08-04T19:08:42.351Z,47.11
2022-08-04T19:11:28.689Z,46.77
2022-08-04T19:14:01.950Z,46.04
2022-08-04T19:16:33.116Z,48.09
2022-08-04T19:19:08.643Z,49.17
2022-08-04T19:22:00.283Z,47.10
2022-08-04T19:24:32.963Z,47.32
2022-08-04T19:27:08.326Z,46.76
2022-08-04T19:29:41.362Z,46.71
2022-08-04T19:32:16.142Z,46.92
2022-08-04T19:34:47.917Z,47.20
2022-08-04T19:37:58.207Z,47.78
2022-08-04T19:40:12.942Z,48.23
2022-08-04T19:42:42.702Z,47.33
2022-08-04T19:45:15.889Z,47.59
2022-08-04T19:48:16.371Z,48.19
2022-08-04T19:50:35.016Z,48.06
2022-08-04T19:53:04.421Z,47.99
2022-08-04T19:55:50.377Z,48.90
2022-08-04T19:58:26.367Z,48.85
2022-08-04T20:00:55.918Z,48.16
2022-08-04T20:04:10.506Z,48.86
2022-08-04T20:06:14.144Z,47.52
2022-08-04T20:08:47.872Z,47.72
2022-08-04T20:11:18.931Z,46.91
2022-08-04T20:13:54.451Z,46.77
2022-08-04T20:16:29.282Z,47.26
2022-08-04T20:19:03.657Z,47.75
2022-08-04T20:21:53.936Z,46.33
2022-08-04T20:24:38.988Z,47.34
2022-08-04T20:27:15.207Z,47.81
2022-08-04T20:29:49.386Z,46.06
2022-08-04T20:32:25.112Z,46.67
2022-08-04T20:34:56.904Z,46.37
2022-08-04T20:37:55.423Z,46.08
2022-08-04T20:40:16.431Z,45.84
2022-08-04T20:42:46.266Z,46.05
2022-08-04T20:45:16.623Z,46.92
2022-08-04T20:47:54.162Z,45.95
2022-08-04T20:50:29.591Z,46.40
2022-08-04T20:52:59.909Z,47.23
2022-08-04T20:55:29.451Z,46.63
2022-08-04T20:58:03.196Z,47.11
2022-08-04T21:00:32.861Z,47.43
2022-08-04T21:03:03.026Z,47.97
2022-08-04T21:05:32.497Z,47.61
2022-08-04T21:08:01.686Z,47.04
2022-08-04T21:10:30.628Z,47.47
2022-08-04T21:12:59.662Z,47.89
2022-08-04T21:15:58.516Z,47.89
2022-08-04T21:18:17.133Z,48.02
2022-08-04T21:20:48.042Z,48.74
2022-08-04T21:23:17.136Z,48.54
2022-08-04T21:25:51.059Z,49.50
2022-08-04T21:28:20.261Z,48.94
2022-08-04T21:33:50.118Z,49.53
2022-08-04T21:36:20.615Z,49.99
2022-08-04T21:38:51.201Z,49.48
2022-08-04T21:41:26.988Z,49.76
2022-08-04T21:43:58.600Z,51.20
2022-08-04T21:46:30.309Z,51.09
2022-08-04T21:49:01.073Z,51.55
2022-08-04T21:52:00.245Z,51.70
2022-08-04T21:54:27.417Z,52.06
2022-08-04T21:56:55.989Z,52.37
2022-08-04T21:59:30.688Z,52.27
2022-08-04T22:02:01.981Z,52.51
2022-08-04T22:04:31.373Z,53.79
2022-08-04T22:07:03.097Z,52.45
2022-08-04T22:09:38.460Z,53.77
2022-08-04T22:12:12.433Z,53.57
2022-08-04T22:14:41.663Z,54.13
2022-08-04T22:17:18.756Z,55.88
2022-08-04T22:19:55.449Z,55.56
2022-08-04T22:22:29.477Z,56.51
2022-08-04T22:28:02.901Z,57.49
2022-08-04T22:30:37.008Z,58.16
2022-08-04T22:33:09.062Z,58.00
2022-08-04T22:35:48.954Z,58.31
2022-08-04T22:38:25.529Z,57.47
2022-08-04T22:41:11.793Z,57.34
2022-08-04T22:43:43.702Z,56.86
2022-08-04T22:46:27.370Z,57.17
2022-08-04T22:48:56.081Z,57.37
2022-08-04T22:51:27.166Z,57.68
2022-08-04T22:53:55.841Z,58.28
2022-08-04T22:56:38.067Z,59.42
2022-08-04T22:59:11.363Z,60.32
2022-08-04T23:02:00.879Z,60.39
2022-08-04T23:04:33.633Z,60.58
2022-08-04T23:07:09.121Z,60.21
2022-08-04T23:09:51.054Z,60.70
2022-08-04T23:12:25.843Z,61.00
2022-08-04T23:14:57.513Z,60.69
2022-08-04T23:17:28.863Z,61.13
2022-08-04T23:19:59.232Z,60.58
2022-08-04T23:22:40.953Z,61.28
2022-08-04T23:25:16.338Z,60.98
2022-08-04T23:27:51.478Z,61.61
2022-08-04T23:30:30.140Z,62.23
2022-08-04T23:32:59.378Z,61.89
2022-08-04T23:35:28.077Z,62.46
2022-08-04T23:37:59.742Z,62.20
2022-08-04T23:40:34.370Z,62.85
2022-08-04T23:43:17.307Z,61.85
2022-08-04T23:46:07.098Z,61.19
2022-08-04T23:48:38.959Z,61.32
2022-08-04T23:51:13.986Z,61.20
2022-08-04T23:54:01.610Z,61.18
2022-08-04T23:56:35.782Z,62.41
2022-08-04T23:59:05.827Z,62.48
